Time;durP1;ratioP1;P1;durP2;ratioP2;P2;SDS_P1;SDS_P2;PMS_P1;PMS_P2;Temp;Humidity;BMP_temperature;BMP_pressure;BME280_temperature;BME280_humidity;BME280_pressure;Samples;Min_cycle;Max_cycle;Signal;HPM_P1;HPM_P2
2021/09/30 00:01:08;;;;;;;0.95;0.40;;;;;;;11.57;65.15;101100.53;10358079;28;20049;-62
2021/09/30 00:06:10;;;;;;;2.92;0.73;;;;;;;11.60;64.53;101108.31;10341274;28;20056;-61
2021/09/30 00:11:14;;;;;;;1.13;0.50;;;;;;;11.73;66.22;101110.13;10341704;28;20050;-62
2021/09/30 02:24:07;;;;;;;2.10;0.45;;;;;;;10.36;71.81;101202.88;10346920;28;20057;-62
2021/09/30 02:29:21;;;;;;;1.97;0.70;;;;;;;10.33;72.65;101197.69;10343959;28;20136;-62
2021/09/30 03:01:21;;;;;;;1.98;0.93;;;;;;;10.08;74.16;101216.06;10331271;28;20133;-62
2021/09/30 03:06:26;;;;;;;2.25;0.77;;;;;;;10.22;73.81;101222.31;10341886;28;20644;-62
2021/09/30 03:11:29;;;;;;;1.70;0.70;;;;;;;10.33;72.61;101219.88;10346766;28;20066;-62
2021/09/30 03:16:39;;;;;;;2.55;1.02;;;;;;;10.37;72.14;101229.38;10337960;28;20042;-61
2021/09/30 03:27:02;;;;;;;3.20;1.05;;;;;;;10.22;73.60;101236.50;10336351;28;20086;-62
2021/09/30 03:32:05;;;;;;;2.92;1.05;;;;;;;10.19;72.83;101246.47;10346371;28;20116;-62
2021/09/30 03:37:07;;;;;;;3.00;1.40;;;;;;;9.91;73.85;101245.56;10336860;28;20104;-62
2021/09/30 03:42:08;;;;;;;2.90;1.33;;;;;;;9.84;74.62;101250.38;10345647;28;20077;-62
2021/09/30 03:47:13;;;;;;;2.70;1.50;;;;;;;9.81;75.12;101250.56;10344086;28;20643;-62
2021/09/30 04:02:40;;;;;;;3.80;1.90;;;;;;;9.91;75.52;101246.38;10336323;28;20119;-62
2021/09/30 04:07:42;;;;;;;3.45;1.42;;;;;;;9.95;76.00;101256.84;10340154;28;20049;-62
2021/09/30 04:12:43;;;;;;;3.88;1.42;;;;;;;9.84;75.35;101258.34;10343837;28;20488;-62
2021/09/30 04:17:45;;;;;;;5.50;1.33;;;;;;;9.74;76.01;101265.19;10340956;28;20393;-62
2021/09/30 04:22:54;;;;;;;2.38;1.05;;;;;;;9.77;76.82;101267.66;10351234;28;20061;-62
2021/09/30 04:27:56;;;;;;;3.53;1.77;;;;;;;9.77;76.62;101274.78;10334395;28;22909;-62
2021/09/30 04:32:57;;;;;;;2.25;1.13;;;;;;;9.68;77.08;101289.47;10321337;28;20073;-62
2021/09/30 04:37:59;;;;;;;3.17;1.30;;;;;;;9.59;77.31;101293.53;10346510;28;20054;-63
2021/09/30 04:43:01;;;;;;;3.78;2.30;;;;;;;9.57;78.32;101299.91;10341612;28;20125;-63
2021/09/30 04:48:03;;;;;;;4.07;2.08;;;;;;;9.65;78.50;101289.66;10355403;28;20070;-62
2021/09/30 04:53:04;;;;;;;5.10;2.35;;;;;;;9.64;77.42;101277.34;10351343;28;20073;-63
2021/09/30 04:58:06;;;;;;;4.30;1.65;;;;;;;9.62;78.95;101281.88;10340397;28;20526;-61
2021/09/30 05:03:07;;;;;;;2.17;1.45;;;;;;;9.51;78.71;101280.72;10336363;28;20136;-62
2021/09/30 05:08:09;;;;;;;3.03;1.30;;;;;;;9.65;78.29;101276.38;10349052;28;20049;-62
2021/09/30 05:13:16;;;;;;;2.95;1.70;;;;;;;9.52;79.67;101273.63;10344137;28;20092;-62
2021/09/30 05:18:18;;;;;;;2.45;1.83;;;;;;;9.60;79.12;101279.31;10321456;28;20069;-62
2021/09/30 05:23:19;;;;;;;5.63;1.90;;;;;;;9.39;79.30;101276.13;10351820;28;20042;-62
2021/09/30 05:28:21;;;;;;;3.85;1.60;;;;;;;9.37;79.80;101289.50;10347724;28;20421;-63
2021/09/30 05:33:24;;;;;;;5.68;1.95;;;;;;;9.44;80.21;101303.28;10349198;28;20049;-63
2021/09/30 05:38:26;;;;;;;4.82;2.10;;;;;;;9.49;79.48;101300.38;10345272;28;20221;-63
2021/09/30 05:43:31;;;;;;;3.55;1.70;;;;;;;9.41;80.64;101311.44;10349603;28;20069;-63
2021/09/30 05:48:32;;;;;;;3.45;1.90;;;;;;;9.29;80.88;101306.84;10355341;28;20084;-63
2021/09/30 05:53:34;;;;;;;4.63;2.50;;;;;;;9.33;81.08;101319.00;10337093;28;20057;-63
2021/09/30 05:58:36;;;;;;;2.63;2.25;;;;;;;9.42;86.21;101313.16;10324604;28;20078;-58
2021/09/30 06:14:24;;;;;;;5.75;2.17;;;;;;;10.10;77.44;101303.75;10335088;28;20499;-63
2021/09/30 06:19:25;;;;;;;4.00;1.73;;;;;;;10.07;77.30;101319.91;10332095;28;20309;-62
2021/09/30 06:24:27;;;;;;;3.58;2.10;;;;;;;10.04;77.57;101314.78;10328557;28;20081;-62
2021/09/30 06:29:28;;;;;;;6.55;2.05;;;;;;;10.01;77.47;101320.28;10330029;28;20578;-62
2021/09/30 06:34:30;;;;;;;4.50;2.03;;;;;;;10.09;77.93;101315.38;10332255;28;20061;-63
2021/09/30 06:39:31;;;;;;;5.65;2.50;;;;;;;10.22;76.54;101329.63;10331332;28;20133;-63
2021/09/30 06:44:33;;;;;;;4.80;2.35;;;;;;;10.37;76.11;101326.97;10330113;28;20140;-63
2021/09/30 06:49:34;;;;;;;3.58;1.58;;;;;;;10.35;76.64;101331.56;10334829;28;20070;-63
2021/09/30 06:54:36;;;;;;;5.78;2.08;;;;;;;10.31;77.05;101335.31;10326727;28;20125;-63
2021/09/30 06:59:37;;;;;;;5.15;2.22;;;;;;;10.60;76.24;101347.69;10335947;28;20068;-63
2021/09/30 07:04:39;;;;;;;2.90;2.00;;;;;;;10.65;74.81;101355.38;10378951;28;21818;-62
2021/09/30 07:09:40;;;;;;;3.05;1.90;;;;;;;10.82;74.46;101369.44;10379978;28;20058;-62
2021/09/30 07:14:42;;;;;;;3.95;1.98;;;;;;;10.82;73.80;101359.63;10338514;28;20054;-63
2021/09/30 07:19:44;;;;;;;5.20;2.35;;;;;;;10.66;74.35;101358.91;10336104;28;20050;-62
2021/09/30 07:24:45;;;;;;;5.30;2.40;;;;;;;10.80;74.20;101356.22;10342691;28;20061;-62
2021/09/30 07:29:47;;;;;;;2.83;2.00;;;;;;;11.06;72.26;101372.34;10336183;28;20131;-63
2021/09/30 07:34:48;;;;;;;1.98;1.45;;;;;;;11.22;71.69;101370.38;10339557;28;20147;-64
2021/09/30 07:39:50;;;;;;;5.55;1.90;;;;;;;11.34;71.11;101376.72;10334733;28;20050;-63
2021/09/30 07:44:51;;;;;;;3.72;1.95;;;;;;;11.59;70.49;101364.41;10339326;28;20065;-62
2021/09/30 07:49:52;;;;;;;4.43;1.98;;;;;;;11.84;70.44;101375.16;10340306;28;20038;-63
2021/09/30 07:54:55;;;;;;;3.35;1.80;;;;;;;12.06;67.30;101362.19;10338595;28;20078;-63
2021/09/30 07:59:57;;;;;;;2.60;1.70;;;;;;;12.10;67.01;101385.00;10334629;28;20131;-61
2021/09/30 08:04:58;;;;;;;2.30;1.45;;;;;;;12.18;67.68;101375.53;10329022;28;20468;-62
2021/09/30 08:10:00;;;;;;;7.40;2.00;;;;;;;12.59;68.07;101376.25;10338443;28;20127;-62
2021/09/30 08:15:02;;;;;;;3.40;2.33;;;;;;;12.82;64.66;101376.41;10334779;28;20073;-62
2021/09/30 08:20:04;;;;;;;3.08;1.83;;;;;;;12.91;64.86;101386.47;10338430;28;20078;-62
2021/09/30 08:25:07;;;;;;;3.45;2.05;;;;;;;13.04;64.33;101384.56;10333647;28;20140;-61
2021/09/30 08:30:09;;;;;;;3.35;1.67;;;;;;;13.03;63.59;101390.91;10336175;28;20125;-60
2021/09/30 08:35:11;;;;;;;4.00;1.90;;;;;;;13.39;63.33;101396.34;10327492;28;20551;-62
2021/09/30 08:40:14;;;;;;;6.35;2.00;;;;;;;13.60;62.49;101399.22;10335069;28;20081;-63
2021/09/30 08:45:21;;;;;;;3.90;2.30;;;;;;;13.77;61.44;101390.78;10329968;28;20054;-62
2021/09/30 08:50:23;;;;;;;5.82;1.65;;;;;;;14.09;61.47;101389.31;10330705;28;20052;-63
2021/09/30 08:55:25;;;;;;;3.33;1.58;;;;;;;14.61;60.20;101381.72;10330422;28;20125;-63
2021/09/30 09:00:42;;;;;;;4.00;1.67;;;;;;;14.90;59.64;101374.00;10325174;28;20045;-62
2021/09/30 09:05:44;;;;;;;4.72;1.80;;;;;;;15.33;57.30;101385.75;10318492;28;20053;-62
2021/09/30 09:10:45;;;;;;;5.40;1.85;;;;;;;15.59;58.08;101366.59;10322029;28;20128;-61
2021/09/30 09:15:59;;;;;;;3.72;1.65;;;;;;;15.97;54.16;101368.72;10319564;28;20125;-61
2021/09/30 09:21:14;;;;;;;4.25;2.10;;;;;;;15.81;55.63;101374.56;10320521;28;20618;-62
2021/09/30 09:26:39;;;;;;;4.50;1.73;;;;;;;16.06;54.58;101373.34;10323389;28;20123;-62
2021/09/30 09:31:40;;;;;;;;;;;;;;;16.45;53.20;101361.91;10330129;28;20073;-62
2021/09/30 09:36:42;;;;;;;4.20;2.03;;;;;;;16.96;51.64;101358.31;10322904;28;19929;-63
2021/09/30 09:41:43;;;;;;;4.13;1.45;;;;;;;17.37;50.49;101363.59;10320398;28;20053;-62
2021/09/30 09:46:44;;;;;;;3.20;1.55;;;;;;;18.23;48.09;101357.41;10321089;28;20460;-63
2021/09/30 09:51:49;;;;;;;3.03;1.33;;;;;;;18.93;46.55;101361.50;10320368;28;20139;-61
2021/09/30 09:56:51;;;;;;;3.72;1.10;;;;;;;20.67;44.16;101362.72;10319902;28;20164;-61
2021/09/30 10:01:53;;;;;;;2.58;1.25;;;;;;;21.50;41.75;101363.81;10317768;28;20132;-61
2021/09/30 10:06:55;;;;;;;3.70;1.40;;;;;;;22.23;38.18;101346.63;10278345;28;20479;-61
2021/09/30 10:11:57;;;;;;;4.55;1.95;;;;;;;20.83;41.40;101341.16;10311812;28;21610;-60
2021/09/30 10:16:58;;;;;;;3.00;1.35;;;;;;;20.92;40.18;101331.19;10316151;28;20054;-61
2021/09/30 10:22:00;;;;;;;4.65;1.92;;;;;;;21.03;39.69;101330.03;10317734;28;20049;-62
2021/09/30 10:27:03;;;;;;;4.10;1.70;;;;;;;21.98;38.95;101328.72;10316535;28;20107;-61
2021/09/30 10:32:06;;;;;;;4.75;1.75;;;;;;;24.99;33.75;101321.22;10316963;28;20081;-61
2021/09/30 10:37:17;;;;;;;4.13;1.10;;;;;;;30.18;26.02;101313.56;10327112;28;20416;-63
2021/09/30 10:42:43;;;;;;;3.90;1.08;;;;;;;30.99;24.43;101310.69;10331908;28;20136;-64
2021/09/30 10:47:45;;;;;;;4.32;1.20;;;;;;;33.69;21.13;101315.00;10292614;28;20046;-64
2021/09/30 10:52:53;;;;;;;2.95;1.23;;;;;;;35.18;19.20;101305.81;10327155;28;20484;-62
2021/09/30 10:57:56;;;;;;;2.95;1.20;;;;;;;32.90;20.80;101299.31;10325997;28;20050;-62
2021/09/30 11:03:05;;;;;;;2.17;0.82;;;;;;;33.14;19.75;101291.75;10327806;28;20125;-62
2021/09/30 11:08:20;;;;;;;3.92;1.30;;;;;;;32.61;21.78;101296.56;10328169;28;20034;-63
2021/09/30 11:13:28;;;;;;;3.03;0.90;;;;;;;34.30;19.27;101281.91;10324313;28;20046;-63
2021/09/30 11:18:50;;;;;;;2.33;1.02;;;;;;;34.11;18.24;101270.34;10327215;28;20058;-63
2021/09/30 11:23:52;;;;;;;2.08;0.77;;;;;;;32.89;19.09;101278.34;10321957;28;20061;-63
2021/09/30 11:28:55;;;;;;;3.08;0.95;;;;;;;31.37;21.39;101279.19;10325673;28;20052;-64
2021/09/30 11:34:01;;;;;;;1.40;0.52;;;;;;;30.78;21.18;101279.88;10330725;28;20237;-64
2021/09/30 11:39:05;;;;;;;2.13;0.82;;;;;;;36.06;17.15;101270.41;10325308;28;20577;-64
2021/09/30 11:44:12;;;;;;;3.10;0.75;;;;;;;35.54;15.73;101267.34;10325596;28;20687;-63
2021/09/30 11:49:13;;;;;;;3.10;0.60;;;;;;;33.08;18.81;101248.63;10324540;28;20152;-64
2021/09/30 11:54:20;;;;;;;2.47;0.63;;;;;;;31.96;19.47;101250.84;10325984;28;20218;-63
2021/09/30 11:59:25;;;;;;;3.33;0.80;;;;;;;32.57;19.16;101229.22;10323238;28;20049;-64
2021/09/30 12:04:49;;;;;;;2.03;0.30;;;;;;;27.56;24.39;101235.84;10321737;28;20139;-63
2021/09/30 12:09:55;;;;;;;4.15;0.82;;;;;;;33.47;19.42;101221.94;10316036;28;20092;-64
2021/09/30 12:14:57;;;;;;;1.48;0.60;;;;;;;36.59;15.12;101218.50;10320486;28;20054;-64
2021/09/30 12:19:59;;;;;;;2.20;0.32;;;;;;;35.15;15.47;101206.72;10320616;28;20136;-63
2021/09/30 12:25:06;;;;;;;1.92;0.73;;;;;;;30.66;19.85;101215.78;10322006;28;20192;-63
2021/09/30 12:30:14;;;;;;;2.10;0.80;;;;;;;26.14;25.90;101227.59;10316775;28;22745;-63
2021/09/30 12:35:32;;;;;;;3.85;0.80;;;;;;;23.98;29.68;101232.06;10320088;28;20046;-63
2021/09/30 12:40:34;;;;;;;3.70;1.50;;;;;;;31.21;20.81;101206.47;10315046;28;20093;-64
2021/09/30 12:45:41;;;;;;;3.80;0.73;;;;;;;31.51;20.31;101200.88;10321959;28;20072;-64
2021/09/30 12:50:49;;;;;;;2.05;0.60;;;;;;;25.42;26.54;101203.25;10322940;28;20491;-63
2021/09/30 12:56:01;;;;;;;3.38;0.50;;;;;;;22.21;31.49;101199.50;10320893;28;20057;-64
2021/09/30 13:01:22;;;;;;;3.30;0.77;;;;;;;21.04;33.59;101193.69;10320140;28;20057;-62
2021/09/30 13:06:24;;;;;;;2.60;0.82;;;;;;;20.84;33.79;101179.66;10322117;28;20305;-61
2021/09/30 13:11:31;;;;;;;2.38;0.85;;;;;;;23.71;29.93;101170.19;10320914;28;20578;-64
2021/09/30 13:16:32;;;;;;;4.85;0.77;;;;;;;26.66;27.46;101166.00;10321087;28;20177;-63
2021/09/30 13:21:57;;;;;;;1.70;0.50;;;;;;;28.87;23.16;101160.75;10323767;28;20907;-65
2021/09/30 13:26:59;;;;;;;5.10;0.95;;;;;;;27.65;22.53;101139.72;10320709;28;20135;-64
2021/09/30 13:32:16;;;;;;;1.70;0.30;;;;;;;24.66;26.17;101138.47;10321933;28;20458;-63
2021/09/30 13:37:18;;;;;;;1.90;0.45;;;;;;;23.05;26.64;101141.78;10321187;28;21160;-64
2021/09/30 13:42:19;;;;;;;4.13;0.52;;;;;;;21.92;29.16;101134.25;10320550;28;20050;-63
2021/09/30 13:47:21;;;;;;;1.98;0.43;;;;;;;21.03;30.82;101118.91;10321204;28;20131;-60
2021/09/30 13:52:23;;;;;;;0.80;0.32;;;;;;;20.66;30.02;101112.19;10323520;28;20128;-61
2021/09/30 13:57:24;;;;;;;1.40;0.40;;;;;;;20.04;30.34;101101.75;10318545;28;20068;-61
2021/09/30 14:02:26;;;;;;;1.38;0.82;;;;;;;20.21;31.10;101116.19;10319529;28;20197;-60
2021/09/30 14:07:28;;;;;;;2.22;0.60;;;;;;;20.12;30.29;101109.91;10318834;28;20117;-60
2021/09/30 14:12:31;;;;;;;1.40;0.30;;;;;;;19.86;31.89;101108.16;10313484;28;20092;-61
2021/09/30 14:17:33;;;;;;;0.70;0.30;;;;;;;19.49;31.80;101108.47;10315148;28;20235;-61
2021/09/30 14:22:36;;;;;;;2.53;0.38;;;;;;;19.24;33.27;101106.44;10318422;28;20057;-61
2021/09/30 14:27:37;;;;;;;1.65;0.68;;;;;;;19.14;34.14;101099.47;10320299;28;20210;-59
2021/09/30 14:32:39;;;;;;;1.52;0.60;;;;;;;18.90;34.70;101101.03;10321994;28;25788;-60
2021/09/30 14:37:41;;;;;;;2.63;0.50;;;;;;;18.51;34.79;101090.53;10319794;28;20050;-61
2021/09/30 14:42:43;;;;;;;2.08;0.88;;;;;;;18.51;34.69;101093.25;10318837;28;20480;-62
2021/09/30 14:47:44;;;;;;;1.77;0.60;;;;;;;18.21;35.59;101087.25;10316973;28;20497;-61
2021/09/30 14:52:46;;;;;;;3.22;0.70;;;;;;;18.17;35.68;101096.63;10317178;28;20050;-62
2021/09/30 14:57:47;;;;;;;2.00;0.95;;;;;;;17.91;35.98;101094.69;10319255;28;20706;-62
2021/09/30 15:02:49;;;;;;;2.17;1.00;;;;;;;17.78;36.46;101086.91;10311090;28;20136;-62
2021/09/30 15:07:50;;;;;;;2.05;0.90;;;;;;;17.53;37.05;101093.84;10319887;28;20132;-61
2021/09/30 15:12:52;;;;;;;3.20;0.82;;;;;;;17.36;37.77;101089.25;10312968;28;20137;-62
2021/09/30 15:17:59;;;;;;;1.50;0.57;;;;;;;17.22;38.66;101077.97;10315291;28;20060;-62
2021/09/30 15:23:11;;;;;;;8.57;1.13;;;;;;;17.09;39.74;101077.44;10316199;28;20086;-61
2021/09/30 15:28:16;;;;;;;3.58;1.33;;;;;;;16.92;39.91;101074.50;10321473;28;20148;-61
2021/09/30 15:33:17;;;;;;;5.60;1.50;;;;;;;16.75;40.73;101077.91;10320349;28;20058;-60
2021/09/30 15:38:23;;;;;;;3.28;1.15;;;;;;;16.63;41.68;101073.69;10322845;28;20045;-63
2021/09/30 15:43:25;;;;;;;5.22;1.83;;;;;;;16.69;41.47;101073.09;10319449;28;20050;-63
2021/09/30 15:48:28;;;;;;;2.85;1.27;;;;;;;16.56;41.61;101060.81;10320888;28;20041;-62
2021/09/30 15:53:29;;;;;;;2.20;1.02;;;;;;;16.40;42.15;101057.84;10317755;28;20511;-61
2021/09/30 15:58:30;;;;;;;3.53;1.17;;;;;;;16.44;42.37;101049.38;10321452;28;20120;-61
2021/09/30 16:03:32;;;;;;;4.18;1.70;;;;;;;16.56;43.41;101051.91;10319280;28;20066;-63
2021/09/30 16:08:34;;;;;;;1.85;1.02;;;;;;;16.51;42.35;101048.78;10308842;28;20133;-65
2021/09/30 16:13:36;;;;;;;2.15;0.63;;;;;;;16.33;43.09;101046.81;10317720;28;20160;-63
2021/09/30 16:18:39;;;;;;;2.88;1.30;;;;;;;16.28;43.58;101059.00;10311022;28;20049;-60
2021/09/30 16:23:42;;;;;;;2.70;1.00;;;;;;;16.29;43.25;101060.66;10292904;28;20050;-61
2021/09/30 16:28:43;;;;;;;4.78;1.45;;;;;;;16.20;44.01;101051.66;10309981;28;20478;-63
2021/09/30 16:33:44;;;;;;;2.78;1.30;;;;;;;16.23;44.72;101046.00;10314721;28;21006;-62
2021/09/30 16:38:49;;;;;;;3.50;1.50;;;;;;;16.08;45.84;101042.88;10317059;28;20076;-62
2021/09/30 16:43:50;;;;;;;4.40;1.63;;;;;;;16.01;45.35;101044.41;10320741;28;20104;-63
2021/09/30 16:48:52;;;;;;;3.72;2.22;;;;;;;15.97;45.96;101046.50;10320426;28;20129;-62
2021/09/30 16:53:53;;;;;;;2.08;1.20;;;;;;;16.05;47.24;101048.53;10320046;28;20193;-58
2021/09/30 16:58:55;;;;;;;3.60;1.65;;;;;;;16.03;46.43;101056.72;10318415;28;20046;-59
2021/09/30 17:03:56;;;;;;;4.90;1.80;;;;;;;16.02;46.90;101060.38;10314438;28;20054;-58
2021/09/30 17:08:57;;;;;;;3.22;1.73;;;;;;;15.99;46.02;101060.66;10321940;28;20459;-59
2021/09/30 17:14:00;;;;;;;4.07;1.30;;;;;;;15.92;46.64;101053.31;10318724;28;20764;-57
2021/09/30 17:19:02;;;;;;;3.78;2.45;;;;;;;15.86;47.20;101050.19;10320525;28;20069;-63
2021/09/30 17:24:04;;;;;;;2.45;1.45;;;;;;;15.80;47.09;101058.78;10318197;28;20057;-62
2021/09/30 17:29:05;;;;;;;3.30;2.20;;;;;;;15.79;48.54;101058.91;10318864;28;20100;-64
2021/09/30 17:34:09;;;;;;;2.70;1.75;;;;;;;15.75;47.74;101050.28;10321131;28;20127;-62
2021/09/30 17:39:11;;;;;;;3.78;1.23;;;;;;;15.61;47.91;101050.66;10316282;28;20054;-62
2021/09/30 17:44:12;;;;;;;2.47;1.45;;;;;;;15.60;48.43;101065.03;10313949;28;20130;-61
2021/09/30 17:49:14;;;;;;;4.63;1.33;;;;;;;15.49;48.35;101052.59;10319431;28;20129;-62
2021/09/30 17:54:15;;;;;;;3.50;1.55;;;;;;;15.34;48.65;101044.94;10281051;23;20134;-63
2021/09/30 17:59:17;;;;;;;5.13;1.70;;;;;;;15.25;48.68;101034.16;10277195;28;20062;-60
2021/09/30 18:04:18;;;;;;;3.22;1.30;;;;;;;15.22;48.61;101045.16;10278291;28;20129;-60
2021/09/30 18:09:21;;;;;;;2.97;1.27;;;;;;;15.12;48.46;101045.97;10274247;28;20129;-60
2021/09/30 18:14:22;;;;;;;3.58;1.20;;;;;;;14.96;49.26;101051.78;10275233;28;20062;-62
2021/09/30 18:19:24;;;;;;;4.18;0.93;;;;;;;14.87;49.36;101041.03;10278007;28;20209;-60
2021/09/30 18:25:10;;;;;;;4.95;1.30;;;;;;;14.71;50.16;101034.28;10277735;28;20137;-62
2021/09/30 18:29:53;;;;;;;4.22;1.95;;;;;;;14.79;51.15;101034.50;10274305;28;20054;-60
2021/09/30 18:34:54;;;;;;;2.17;1.23;;;;;;;14.81;50.79;101042.41;10275987;28;20125;-61
2021/09/30 18:39:57;;;;;;;3.90;1.70;;;;;;;14.74;51.24;101036.72;10277000;28;20136;-62
2021/09/30 18:44:58;;;;;;;2.33;1.40;;;;;;;14.76;51.24;101033.91;10276395;28;20058;-63
2021/09/30 18:50:00;;;;;;;3.78;1.70;;;;;;;14.62;52.19;101037.75;10274392;28;20061;-62
2021/09/30 18:55:08;;;;;;;3.15;1.55;;;;;;;14.56;52.58;101032.88;10276136;28;20699;-61
2021/09/30 19:00:12;;;;;;;4.00;1.23;;;;;;;14.58;53.04;101034.47;10242687;28;20053;-61
2021/09/30 19:05:14;;;;;;;3.25;1.25;;;;;;;14.67;52.31;101036.38;10241586;28;20137;-60
2021/09/30 19:10:15;;;;;;;4.20;1.15;;;;;;;14.55;52.48;101042.78;10243406;28;21656;-61
2021/09/30 19:15:17;;;;;;;2.90;1.20;;;;;;;14.52;52.39;101032.31;10279832;28;20050;-61
2021/09/30 19:20:19;;;;;;;1.35;0.90;;;;;;;14.50;52.50;101040.47;10289263;28;20157;-61
2021/09/30 19:25:21;;;;;;;4.00;1.60;;;;;;;14.45;52.46;101026.59;10291212;28;20074;-62
2021/09/30 19:30:23;;;;;;;2.15;1.05;;;;;;;14.45;52.61;101031.97;10289662;28;20058;-61
2021/09/30 19:35:27;;;;;;;4.50;1.20;;;;;;;14.43;52.32;101023.22;10290742;28;20071;-62
2021/09/30 19:40:29;;;;;;;2.40;0.98;;;;;;;14.39;53.14;101027.13;10292459;28;20077;-61
2021/09/30 19:45:30;;;;;;;2.67;1.42;;;;;;;14.41;52.88;101033.22;10294482;28;20141;-61
2021/09/30 19:50:32;;;;;;;2.28;1.35;;;;;;;14.38;52.28;101027.25;10296075;28;20143;-60
2021/09/30 19:55:34;;;;;;;3.53;1.50;;;;;;;14.23;52.59;101021.38;10299428;28;20137;-60
2021/09/30 20:00:36;;;;;;;3.38;1.08;;;;;;;14.19;53.00;101011.91;10298902;28;20116;-61
2021/09/30 20:05:37;;;;;;;6.10;1.60;;;;;;;14.22;53.04;101014.34;10293947;28;20050;-61
2021/09/30 20:10:38;;;;;;;3.30;1.35;;;;;;;14.26;52.47;101016.63;10299693;28;20051;-60
2021/09/30 20:15:40;;;;;;;3.22;1.35;;;;;;;14.31;52.63;101014.41;10290538;28;20134;-60
2021/09/30 20:20:42;;;;;;;2.25;1.08;;;;;;;14.28;52.50;101016.50;10297747;28;20053;-62
2021/09/30 20:25:45;;;;;;;2.42;1.00;;;;;;;14.30;52.04;101009.16;10291290;28;20109;-60
2021/09/30 20:30:46;;;;;;;2.95;1.08;;;;;;;14.33;51.78;101022.28;10296704;28;20069;-64
2021/09/30 20:35:48;;;;;;;4.85;1.25;;;;;;;14.30;52.45;101012.69;10291705;28;20203;-61
2021/09/30 20:40:50;;;;;;;2.97;1.20;;;;;;;14.31;52.13;101008.19;10284049;28;20129;-60
2021/09/30 20:45:53;;;;;;;1.73;0.95;;;;;;;14.31;52.42;101008.19;10295925;28;20105;-61
2021/09/30 20:50:55;;;;;;;1.90;0.80;;;;;;;14.33;52.54;101009.75;10289583;28;20126;-63
2021/09/30 20:55:57;;;;;;;3.15;1.20;;;;;;;14.36;52.68;101005.97;10284914;28;20046;-62
2021/09/30 21:00:59;;;;;;;1.67;0.80;;;;;;;14.31;52.66;101009.03;10292074;28;20155;-60
2021/09/30 21:06:02;;;;;;;4.93;1.10;;;;;;;14.31;53.23;100997.50;10291921;28;20153;-62
2021/09/30 21:11:04;;;;;;;3.03;1.20;;;;;;;14.26;53.81;100997.00;10299679;28;20136;-61
2021/09/30 21:16:06;;;;;;;3.38;1.67;;;;;;;14.26;53.76;101002.38;10284864;28;20074;-62
2021/09/30 21:21:08;;;;;;;5.75;1.10;;;;;;;14.17;53.63;100979.03;10292375;28;20050;-60
2021/09/30 21:26:09;;;;;;;4.40;0.90;;;;;;;14.22;53.42;100993.75;10296740;28;20133;-60
2021/09/30 21:31:11;;;;;;;2.65;0.85;;;;;;;14.16;53.90;100994.28;10289910;28;20215;-61
2021/09/30 21:36:12;;;;;;;2.75;0.90;;;;;;;14.17;54.16;100984.41;10288567;28;20577;-61
2021/09/30 21:41:14;;;;;;;3.47;0.85;;;;;;;14.07;53.60;100990.53;10287415;28;20479;-61
2021/09/30 21:46:15;;;;;;;3.33;0.88;;;;;;;14.07;54.20;100990.53;10288929;28;20784;-60
2021/09/30 21:51:17;;;;;;;1.92;0.70;;;;;;;14.00;54.73;100983.97;10295655;28;20058;-63
2021/09/30 21:56:18;;;;;;;1.98;0.70;;;;;;;14.05;54.51;100981.78;10289557;28;20133;-61
2021/09/30 22:01:20;;;;;;;1.58;0.60;;;;;;;14.12;54.44;100982.94;10285327;28;20136;-60
2021/09/30 22:06:21;;;;;;;1.20;0.52;;;;;;;14.09;54.42;100985.88;10293330;28;20054;-59
2021/09/30 22:11:26;;;;;;;3.15;0.73;;;;;;;14.11;53.72;100981.28;10290211;28;20271;-60
2021/09/30 22:16:28;;;;;;;3.55;1.17;;;;;;;14.02;54.21;100973.16;10285054;28;20092;-61
2021/09/30 22:21:30;;;;;;;4.10;1.13;;;;;;;13.93;55.41;100972.09;10288992;28;20133;-60
2021/09/30 22:26:32;;;;;;;3.45;1.00;;;;;;;13.86;56.32;100966.41;10293904;28;20142;-60
2021/09/30 22:31:34;;;;;;;2.20;0.90;;;;;;;13.81;56.27;100967.75;10290266;28;20086;-60
2021/09/30 22:36:37;;;;;;;2.70;1.30;;;;;;;13.75;56.93;100982.47;10295352;28;20145;-61
2021/09/30 22:41:39;;;;;;;3.08;0.88;;;;;;;13.73;57.14;100971.91;10293193;28;20113;-61
2021/09/30 22:46:40;;;;;;;2.17;1.58;;;;;;;13.66;57.33;100984.13;10295684;28;20460;-61
2021/09/30 22:51:42;;;;;;;2.38;1.20;;;;;;;13.64;57.34;100974.50;10293607;28;20109;-60
2021/09/30 22:56:43;;;;;;;2.65;1.10;;;;;;;13.59;57.59;100969.53;10299535;28;20121;-61
2021/09/30 23:01:45;;;;;;;3.38;1.27;;;;;;;13.61;58.15;100968.41;10295621;28;20137;-60
2021/09/30 23:06:46;;;;;;;5.63;1.20;;;;;;;13.52;57.83;100952.28;10288909;28;20057;-60
2021/09/30 23:11:48;;;;;;;3.00;1.27;;;;;;;13.46;57.64;100952.78;10295277;28;20054;-60
2021/09/30 23:16:50;;;;;;;2.50;1.40;;;;;;;13.40;57.73;100948.78;10294510;28;20066;-60
2021/09/30 23:21:53;;;;;;;4.20;1.65;;;;;;;13.34;58.44;100950.13;10295588;28;20140;-61
2021/09/30 23:26:55;;;;;;;3.08;1.45;;;;;;;13.26;58.65;100948.03;10294760;28;20065;-60
2021/09/30 23:31:56;;;;;;;2.75;1.10;;;;;;;13.20;58.96;100943.19;10292081;28;20125;-60
2021/09/30 23:36:58;;;;;;;2.83;1.33;;;;;;;13.14;59.10;100938.34;10290559;28;20085;-61
2021/09/30 23:41:59;;;;;;;1.73;1.35;;;;;;;13.12;59.54;100944.78;10287728;28;20054;-64
2021/09/30 23:47:03;;;;;;;4.28;1.58;;;;;;;13.09;59.95;100935.22;10288174;28;20054;-61
2021/09/30 23:52:06;;;;;;;3.13;1.63;;;;;;;13.05;60.22;100941.75;10288653;23;20081;-63
2021/09/30 23:57:07;;;;;;;3.22;1.50;;;;;;;13.08;60.55;100937.00;10305175;28;20086;-62
